Time;durP1;ratioP1;P1;durP2;ratioP2;P2;SDS_P1;SDS_P2;PMS_P1;PMS_P2;Temp;Humidity;BMP_temperature;BMP_pressure;BME280_temperature;BME280_humidity;BME280_pressure;Samples;Min_cycle;Max_cycle;Signal;HPM_P1;HPM_P2
2021/08/26 00:06:57;;;;;;;5.05;2.78;;;16.70;99.90;;;;;;5027362;28;20053;-73
2021/08/26 00:09:23;;;;;;;6.13;2.90;;;16.70;99.90;;;;;;5014375;28;20033;-74
2021/08/26 00:11:49;;;;;;;4.75;2.63;;;16.80;99.90;;;;;;5028862;28;20617;-74
2021/08/26 00:14:16;;;;;;;5.57;2.72;;;16.80;99.90;;;;;;5027768;28;20042;-75
2021/08/26 00:16:43;;;;;;;9.05;2.83;;;16.90;99.90;;;;;;5028622;28;20033;-74
2021/08/26 00:19:10;;;;;;;5.80;3.20;;;16.90;99.90;;;;;;5027609;28;20021;-74
2021/08/26 00:21:35;;;;;;;7.68;3.42;;;16.80;99.90;;;;;;5028954;28;20698;-75
2021/08/26 00:24:02;;;;;;;13.25;7.80;;;16.70;99.90;;;;;;5028328;28;20021;-75
2021/08/26 00:26:31;;;;;;;9.10;5.38;;;16.70;99.90;;;;;;5022358;28;20400;-74
2021/08/26 00:28:58;;;;;;;8.02;3.58;;;16.50;99.90;;;;;;5028858;28;20060;-74
2021/08/26 00:31:23;;;;;;;7.18;3.03;;;16.50;99.90;;;;;;5031803;28;20025;-74
2021/08/26 00:33:49;;;;;;;5.03;2.40;;;16.60;99.90;;;;;;5013996;28;20228;-74
2021/08/26 00:36:16;;;;;;;4.82;3.03;;;16.60;99.90;;;;;;5024882;28;20033;-74
2021/08/26 00:38:41;;;;;;;6.85;3.70;;;16.70;99.90;;;;;;5031961;28;20033;-74
2021/08/26 00:41:07;;;;;;;5.80;3.00;;;16.50;99.90;;;;;;5031842;28;20039;-74
2021/08/26 00:43:33;;;;;;;5.38;3.00;;;16.50;99.90;;;;;;5023134;28;20037;-74
2021/08/26 00:45:59;;;;;;;5.00;2.75;;;16.50;99.90;;;;;;5021101;28;20034;-74
2021/08/26 00:48:28;;;;;;;4.53;3.20;;;16.50;99.90;;;;;;5017656;28;20042;-74
2021/08/26 00:50:55;;;;;;;5.45;3.13;;;16.50;99.90;;;;;;5029088;28;20045;-74
2021/08/26 00:53:21;;;;;;;5.40;3.28;;;16.60;99.90;;;;;;5031431;28;20037;-74
2021/08/26 00:55:47;;;;;;;5.38;3.60;;;16.50;99.90;;;;;;5030947;28;20033;-75
2021/08/26 00:58:13;;;;;;;5.53;3.15;;;16.50;99.90;;;;;;5032022;28;20045;-74
2021/08/26 01:00:49;;;;;;;6.63;3.67;;;16.40;99.90;;;;;;5031713;28;20022;-74
2021/08/26 01:03:20;;;;;;;6.97;3.50;;;16.40;99.90;;;;;;5025206;28;20032;-74
2021/08/26 01:05:55;;;;;;;5.88;3.50;;;16.40;99.90;;;;;;5031306;28;20661;-74
2021/08/26 01:08:48;;;;;;;5.65;2.97;;;16.30;99.90;;;;;;5031725;28;20052;-74
2021/08/26 01:11:17;;;;;;;9.15;3.67;;;16.40;99.90;;;;;;5030707;28;20069;-74
2021/08/26 01:13:45;;;;;;;6.80;3.25;;;16.30;99.90;;;;;;5031335;28;20045;-74
2021/08/26 01:16:12;;;;;;;4.93;3.10;;;16.30;99.90;;;;;;5022282;28;20044;-74
2021/08/26 01:18:42;;;;;;;6.03;4.18;;;16.40;99.90;;;;;;5030991;28;20037;-74
2021/08/26 01:21:09;;;;;;;9.98;3.92;;;16.40;99.90;;;;;;5019996;28;20033;-74
2021/08/26 01:23:42;;;;;;;6.55;3.53;;;16.30;99.90;;;;;;5021835;28;20060;-74
2021/08/26 01:26:09;;;;;;;7.07;3.67;;;16.20;99.90;;;;;;5022583;28;20080;-74
2021/08/26 01:28:38;;;;;;;5.18;3.28;;;16.10;99.90;;;;;;5030839;28;20370;-74
2021/08/26 01:31:04;;;;;;;5.93;3.70;;;16.20;99.90;;;;;;5020301;28;20467;-74
2021/08/26 01:33:31;;;;;;;9.88;4.18;;;16.10;99.90;;;;;;5025638;28;20033;-74
2021/08/26 01:35:58;;;;;;;6.63;3.83;;;15.90;99.90;;;;;;5029780;28;20682;-74
2021/08/26 01:38:24;;;;;;;6.45;3.60;;;16.00;99.90;;;;;;5019327;28;20037;-74
2021/08/26 01:40:50;;;;;;;5.68;3.92;;;16.10;99.90;;;;;;5018570;28;20029;-74
2021/08/26 01:43:19;;;;;;;7.18;3.40;;;15.90;99.90;;;;;;5018856;28;20038;-74
2021/08/26 01:45:46;;;;;;;7.70;4.20;;;16.10;99.90;;;;;;5018684;28;20472;-74
2021/08/26 01:48:16;;;;;;;5.13;3.53;;;16.10;99.90;;;;;;5029277;28;20034;-74
2021/08/26 01:50:43;;;;;;;5.35;3.40;;;16.00;99.90;;;;;;5030930;28;20056;-74
2021/08/26 01:53:09;;;;;;;5.68;3.55;;;16.00;99.90;;;;;;5030140;28;20049;-74
2021/08/26 01:55:35;;;;;;;5.82;3.40;;;15.90;99.90;;;;;;5030578;28;20033;-74
2021/08/26 01:58:01;;;;;;;5.75;3.83;;;15.70;99.90;;;;;;5029758;28;20624;-74
2021/08/26 02:00:27;;;;;;;7.85;3.60;;;15.80;99.90;;;;;;5024881;28;20030;-74
2021/08/26 02:02:52;;;;;;;7.13;3.42;;;15.80;99.90;;;;;;5009998;28;20472;-74
2021/08/26 02:05:18;;;;;;;8.05;3.88;;;15.70;99.90;;;;;;5030416;28;20083;-74
2021/08/26 02:07:45;;;;;;;7.57;3.95;;;15.90;99.90;;;;;;5021707;28;20045;-74
2021/08/26 02:10:11;;;;;;;6.88;3.92;;;15.90;99.90;;;;;;5028509;28;20510;-74
2021/08/26 02:12:37;;;;;;;8.75;4.45;;;16.00;99.90;;;;;;5030530;28;20054;-74
2021/08/26 02:15:04;;;;;;;10.32;4.50;;;15.90;99.90;;;;;;5029666;28;20037;-74
2021/08/26 02:17:29;;;;;;;8.93;3.88;;;15.70;99.90;;;;;;5029623;28;20032;-74
2021/08/26 02:19:55;;;;;;;7.40;3.88;;;15.70;99.90;;;;;;5019838;28;20371;-74
2021/08/26 02:22:20;;;;;;;6.22;3.70;;;15.70;99.90;;;;;;5009845;28;20037;-74
2021/08/26 02:24:46;;;;;;;8.90;4.03;;;15.70;99.90;;;;;;5019548;28;20037;-74
2021/08/26 02:27:12;;;;;;;8.13;3.85;;;15.70;99.90;;;;;;5029528;28;20080;-74
2021/08/26 02:29:38;;;;;;;7.25;3.85;;;15.80;99.90;;;;;;5029328;28;20647;-74
2021/08/26 02:32:04;;;;;;;6.35;3.50;;;15.70;99.90;;;;;;5013508;28;20476;-74
2021/08/26 02:34:29;;;;;;;5.88;3.17;;;15.80;99.90;;;;;;5025042;28;20116;-74
2021/08/26 02:36:55;;;;;;;9.88;4.22;;;15.90;99.90;;;;;;5022177;28;20802;-74
2021/08/26 02:39:21;;;;;;;6.47;4.03;;;15.80;99.90;;;;;;5021127;28;20578;-74
2021/08/26 02:41:47;;;;;;;6.78;4.25;;;15.60;99.90;;;;;;5029028;28;20029;-74
2021/08/26 02:44:12;;;;;;;7.13;4.38;;;15.50;99.90;;;;;;5031355;28;20025;-74
2021/08/26 02:46:38;;;;;;;8.18;3.78;;;15.40;99.90;;;;;;5041291;28;20379;-74
2021/08/26 02:49:03;;;;;;;6.50;4.40;;;15.40;99.90;;;;;;5017920;28;20464;-74
2021/08/26 02:51:29;;;;;;;6.32;3.78;;;15.50;99.90;;;;;;5012366;28;20688;-74
2021/08/26 02:53:55;;;;;;;7.25;4.85;;;15.50;99.90;;;;;;5029682;28;20537;-74
2021/08/26 02:56:20;;;;;;;7.22;4.40;;;15.50;99.90;;;;;;5028610;28;20060;-74
2021/08/26 02:58:46;;;;;;;9.95;4.60;;;15.50;99.90;;;;;;5029876;28;20486;-74
2021/08/26 03:01:12;;;;;;;8.82;3.72;;;15.40;99.90;;;;;;5029055;28;20709;-74
2021/08/26 03:03:37;;;;;;;6.28;4.15;;;15.30;99.90;;;;;;5028984;28;20366;-74
2021/08/26 03:06:03;;;;;;;5.65;4.18;;;15.30;99.90;;;;;;5029572;28;20383;-74
2021/08/26 03:08:31;;;;;;;6.45;3.78;;;15.20;99.90;;;;;;5028897;28;20754;-74
2021/08/26 03:10:56;;;;;;;8.00;4.10;;;15.20;99.90;;;;;;5029585;28;20116;-74
2021/08/26 03:13:22;;;;;;;7.05;4.15;;;15.30;99.90;;;;;;5028514;28;20128;-74
2021/08/26 03:15:47;;;;;;;7.93;4.03;;;15.30;99.90;;;;;;5029438;28;20091;-74
2021/08/26 03:18:13;;;;;;;7.75;4.18;;;15.30;99.90;;;;;;5028195;28;20079;-74
2021/08/26 03:20:40;;;;;;;7.85;4.40;;;15.40;99.90;;;;;;5029254;28;20030;-74
2021/08/26 03:23:06;;;;;;;8.65;4.55;;;15.30;99.90;;;;;;5036590;28;20761;-74
2021/08/26 03:25:32;;;;;;;7.47;3.80;;;15.30;99.90;;;;;;5042776;28;20068;-74
2021/08/26 03:27:57;;;;;;;5.53;3.45;;;15.40;99.90;;;;;;5020897;28;20466;-74
2021/08/26 03:30:23;;;;;;;7.93;4.03;;;15.50;99.90;;;;;;5028987;28;20037;-74
2021/08/26 03:32:49;;;;;;;7.35;4.30;;;15.40;99.90;;;;;;5023859;28;20037;-74
2021/08/26 03:35:15;;;;;;;6.10;3.95;;;15.20;99.90;;;;;;5048978;28;20071;-74
2021/08/26 03:37:40;;;;;;;6.28;3.90;;;15.10;99.90;;;;;;5032305;28;20029;-74
2021/08/26 03:40:07;;;;;;;9.35;4.75;;;15.10;99.90;;;;;;5027305;28;20044;-74
2021/08/26 03:42:32;;;;;;;7.68;4.75;;;15.10;99.90;;;;;;5028988;28;20029;-74
2021/08/26 03:44:58;;;;;;;6.97;3.90;;;15.00;99.90;;;;;;5028743;28;20112;-74
2021/08/26 03:47:23;;;;;;;7.15;4.05;;;15.00;99.90;;;;;;5028736;28;20038;-74
2021/08/26 03:49:49;;;;;;;7.20;4.05;;;15.00;99.90;;;;;;5026872;28;20039;-75
2021/08/26 03:52:15;;;;;;;8.65;3.92;;;15.10;99.90;;;;;;5028760;28;20095;-74
2021/08/26 03:54:41;;;;;;;6.30;3.67;;;15.10;99.90;;;;;;5027708;28;20497;-74
2021/08/26 03:57:06;;;;;;;9.55;4.32;;;15.10;99.90;;;;;;5025465;28;20450;-74
2021/08/26 03:59:32;;;;;;;6.38;4.78;;;15.10;99.90;;;;;;5022563;28;20101;-74
2021/08/26 04:01:57;;;;;;;6.80;3.88;;;15.00;99.90;;;;;;5028904;28;20037;-74
2021/08/26 04:04:23;;;;;;;7.93;4.75;;;15.00;99.90;;;;;;5031331;28;20045;-74
2021/08/26 04:06:49;;;;;;;7.88;4.18;;;15.00;99.90;;;;;;5031928;28;20026;-74
2021/08/26 04:09:14;;;;;;;9.45;4.28;;;15.00;99.90;;;;;;5032739;28;20072;-74
2021/08/26 04:11:40;;;;;;;9.45;3.83;;;15.10;99.90;;;;;;5029840;28;20352;-74
2021/08/26 04:14:05;;;;;;;5.38;3.75;;;15.10;99.90;;;;;;5023266;28;20092;-74
2021/08/26 04:16:31;;;;;;;6.47;4.20;;;15.10;99.90;;;;;;5021024;28;20076;-74
2021/08/26 04:18:57;;;;;;;7.22;4.72;;;15.00;99.90;;;;;;5029718;28;20084;-74
2021/08/26 04:21:22;;;;;;;7.88;4.13;;;14.90;99.90;;;;;;5031974;28;20283;-74
2021/08/26 04:23:48;;;;;;;7.78;4.00;;;14.80;99.90;;;;;;5032216;28;20033;-74
2021/08/26 04:26:13;;;;;;;8.30;4.13;;;15.00;99.90;;;;;;5031769;28;20028;-74
2021/08/26 04:28:39;;;;;;;6.45;4.00;;;15.00;99.90;;;;;;5030891;28;20048;-74
2021/08/26 04:31:05;;;;;;;10.93;5.28;;;15.10;99.90;;;;;;5021364;28;20103;-74
2021/08/26 04:33:30;;;;;;;10.85;6.35;;;15.10;99.90;;;;;;5025158;28;20033;-74
2021/08/26 04:35:56;;;;;;;11.48;6.30;;;14.90;99.90;;;;;;5032128;28;20418;-74
2021/08/26 04:38:22;;;;;;;11.18;5.93;;;14.80;99.90;;;;;;5031604;28;20037;-74
2021/08/26 04:40:47;;;;;;;10.52;6.50;;;14.60;99.90;;;;;;5032039;28;20021;-74
2021/08/26 04:43:13;;;;;;;12.65;6.57;;;14.50;99.90;;;;;;5031524;28;20033;-74
2021/08/26 04:45:38;;;;;;;10.27;7.03;;;14.50;99.90;;;;;;5032120;28;20115;-74
2021/08/26 04:48:04;;;;;;;9.43;6.38;;;14.50;99.90;;;;;;5030773;28;20738;-74
2021/08/26 04:50:30;;;;;;;9.00;6.82;;;14.60;99.90;;;;;;5031888;28;20037;-74
2021/08/26 04:52:56;;;;;;;9.95;6.35;;;14.60;99.90;;;;;;5031474;28;20040;-74
2021/08/26 04:55:21;;;;;;;10.45;8.45;;;14.70;99.90;;;;;;5028596;28;20075;-74
2021/08/26 04:57:47;;;;;;;13.90;7.47;;;14.70;99.90;;;;;;5023376;28;20064;-74
2021/08/26 05:00:13;;;;;;;11.23;7.30;;;14.70;99.90;;;;;;5019265;28;20030;-74
2021/08/26 05:02:38;;;;;;;9.43;7.70;;;14.60;99.90;;;;;;5023326;28;20025;-74
2021/08/26 05:05:04;;;;;;;12.40;8.27;;;14.60;99.90;;;;;;5011584;28;20149;-74
2021/08/26 05:07:30;;;;;;;14.77;9.63;;;14.60;99.90;;;;;;5021854;28;20038;-74
2021/08/26 05:09:55;;;;;;;12.65;10.60;;;14.70;99.90;;;;;;5012094;28;20445;-74
2021/08/26 05:12:21;;;;;;;13.98;12.00;;;14.80;99.90;;;;;;5011860;28;20372;-74
2021/08/26 05:14:46;;;;;;;12.38;10.00;;;14.90;99.90;;;;;;5018150;28;20477;-74
2021/08/26 05:17:12;;;;;;;13.02;9.77;;;14.90;99.90;;;;;;5030979;28;20065;-74
2021/08/26 05:19:38;;;;;;;12.98;10.35;;;15.00;99.90;;;;;;5031052;28;20071;-74
2021/08/26 05:22:03;;;;;;;10.23;8.48;;;15.00;99.90;;;;;;5030601;28;20064;-74
2021/08/26 05:24:30;;;;;;;12.55;8.43;;;14.90;99.90;;;;;;5030491;28;20117;-74
2021/08/26 05:26:55;;;;;;;12.48;7.25;;;15.00;99.90;;;;;;5028569;28;20130;-74
2021/08/26 05:29:21;;;;;;;11.18;5.78;;;15.10;99.90;;;;;;5015648;28;20596;-74
2021/08/26 05:31:47;;;;;;;10.57;7.60;;;15.10;99.90;;;;;;5029955;28;20018;-74
2021/08/26 05:34:13;;;;;;;9.90;7.05;;;15.30;99.90;;;;;;5031013;28;20061;-74
2021/08/26 05:36:38;;;;;;;6.32;4.60;;;15.30;99.90;;;;;;5029975;28;20033;-74
2021/08/26 05:39:04;;;;;;;7.80;4.00;;;15.30;99.90;;;;;;5030824;28;20111;-74
2021/08/26 05:41:29;;;;;;;8.60;4.22;;;15.30;99.90;;;;;;5029888;28;20055;-74
2021/08/26 05:43:55;;;;;;;8.15;4.57;;;15.30;99.90;;;;;;5030667;28;20029;-74
2021/08/26 05:46:21;;;;;;;8.68;5.28;;;15.30;99.90;;;;;;5030501;28;20140;-74
2021/08/26 05:48:46;;;;;;;12.95;9.85;;;15.40;99.90;;;;;;5030109;28;20041;-74
2021/08/26 05:51:12;;;;;;;17.02;13.05;;;15.40;99.90;;;;;;5028403;28;20100;-74
2021/08/26 05:53:37;;;;;;;19.35;12.32;;;15.50;99.90;;;;;;5020277;28;20037;-74
2021/08/26 05:56:04;;;;;;;14.10;10.77;;;15.50;99.90;;;;;;5029689;28;20040;-74
2021/08/26 05:58:29;;;;;;;10.13;7.07;;;15.60;99.90;;;;;;5025562;28;20511;-74
2021/08/26 06:00:55;;;;;;;13.60;9.98;;;15.60;99.90;;;;;;5023592;28;20041;-74
2021/08/26 06:03:20;;;;;;;18.42;16.45;;;15.60;99.90;;;;;;5026038;28;20034;-74
2021/08/26 06:05:46;;;;;;;18.20;13.80;;;15.70;99.90;;;;;;5030460;28;20071;-75
2021/08/26 06:08:12;;;;;;;21.80;16.95;;;15.80;99.90;;;;;;5023055;28;20045;-74
2021/08/26 06:10:37;;;;;;;22.10;19.65;;;15.90;99.90;;;;;;5030658;28;20116;-74
2021/08/26 06:13:03;;;;;;;24.42;19.98;;;15.90;99.90;;;;;;5027833;28;20071;-74
2021/08/26 06:15:29;;;;;;;20.58;18.50;;;15.90;99.90;;;;;;5022199;28;20034;-74
2021/08/26 06:17:55;;;;;;;18.55;16.65;;;16.00;99.90;;;;;;5022544;28;20037;-75
2021/08/26 06:20:21;;;;;;;19.35;16.35;;;16.00;99.90;;;;;;5037690;28;20026;-74
2021/08/26 06:22:47;;;;;;;20.58;16.85;;;16.20;99.90;;;;;;5026870;28;20151;-74
2021/08/26 06:25:13;;;;;;;20.98;16.00;;;16.20;99.90;;;;;;5028455;28;20079;-75
2021/08/26 06:27:39;;;;;;;17.50;14.68;;;16.30;99.90;;;;;;5048229;28;20021;-74
2021/08/26 06:30:07;;;;;;;13.45;7.40;;;16.30;99.90;;;;;;5041988;28;20036;-74
2021/08/26 06:32:32;;;;;;;9.00;5.03;;;16.20;99.90;;;;;;5024048;28;20061;-75
2021/08/26 06:34:58;;;;;;;10.10;4.18;;;16.10;99.90;;;;;;5036359;28;20060;-74
2021/08/26 06:37:25;;;;;;;7.28;4.22;;;16.10;99.90;;;;;;5034148;28;20403;-74
2021/08/26 06:39:50;;;;;;;6.90;5.22;;;16.00;99.90;;;;;;5024639;28;20025;-74
2021/08/26 06:42:17;;;;;;;10.75;5.93;;;16.00;99.90;;;;;;5035474;28;20035;-74
2021/08/26 06:44:42;;;;;;;10.23;6.10;;;16.20;99.90;;;;;;5032269;28;20029;-74
2021/08/26 06:47:08;;;;;;;14.10;7.13;;;16.40;99.90;;;;;;5027400;28;20049;-74
2021/08/26 06:49:34;;;;;;;10.40;5.95;;;16.50;99.90;;;;;;5021708;28;20045;-75
2021/08/26 06:51:59;;;;;;;8.63;5.88;;;16.50;99.90;;;;;;5040305;28;20048;-74
2021/08/26 06:54:25;;;;;;;9.63;5.75;;;16.60;99.90;;;;;;5031066;28;20029;-74
2021/08/26 06:56:51;;;;;;;10.48;5.20;;;16.70;99.90;;;;;;5029964;28;20068;-74
2021/08/26 06:59:16;;;;;;;7.53;4.70;;;16.90;99.90;;;;;;5039681;28;20036;-75
2021/08/26 07:01:42;;;;;;;10.60;4.82;;;17.00;99.90;;;;;;5029282;28;20104;-75
2021/08/26 07:04:08;;;;;;;9.38;5.15;;;17.00;99.90;;;;;;5028515;28;20033;-76
2021/08/26 07:06:33;;;;;;;10.40;5.05;;;17.10;99.90;;;;;;5031734;28;20036;-76
2021/08/26 07:09:00;;;;;;;8.18;4.72;;;17.20;99.90;;;;;;5013729;28;20139;-74
2021/08/26 07:11:26;;;;;;;6.28;4.10;;;17.30;99.90;;;;;;5020142;28;20574;-74
2021/08/26 07:13:52;;;;;;;6.15;3.40;;;17.20;99.90;;;;;;5026160;28;20061;-74
2021/08/26 07:16:18;;;;;;;10.40;4.63;;;17.30;99.90;;;;;;5035080;28;20059;-74
2021/08/26 07:18:43;;;;;;;7.38;4.18;;;17.40;99.90;;;;;;5029460;28;20034;-74
2021/08/26 07:21:09;;;;;;;6.72;3.97;;;17.60;99.90;;;;;;5029112;28;20021;-74
2021/08/26 07:23:35;;;;;;;8.32;4.57;;;17.70;99.90;;;;;;5028338;28;20044;-74
2021/08/26 07:26:01;;;;;;;9.00;4.22;;;17.90;99.90;;;;;;5033637;28;20108;-74
2021/08/26 07:28:27;;;;;;;8.95;4.90;;;17.90;99.90;;;;;;5027378;28;20128;-74
2021/08/26 07:30:52;;;;;;;9.65;4.63;;;18.00;99.90;;;;;;5025817;28;20112;-74
2021/08/26 07:33:18;;;;;;;9.05;5.13;;;18.30;99.90;;;;;;5022754;28;20052;-74
2021/08/26 07:35:44;;;;;;;8.02;5.25;;;18.40;99.90;;;;;;5030516;28;20037;-74
2021/08/26 07:38:09;;;;;;;9.10;4.53;;;18.40;99.90;;;;;;5021827;28;20045;-74
2021/08/26 07:40:35;;;;;;;8.98;4.30;;;18.50;99.90;;;;;;5022631;28;20032;-75
2021/08/26 07:43:01;;;;;;;9.15;4.60;;;18.60;99.90;;;;;;5030218;28;20038;-74
2021/08/26 07:45:26;;;;;;;7.65;4.40;;;18.90;99.90;;;;;;5030497;28;20021;-74
2021/08/26 07:47:52;;;;;;;7.70;3.53;;;19.10;99.90;;;;;;5022778;28;20039;-74
2021/08/26 07:50:20;;;;;;;5.55;3.33;;;19.40;99.90;;;;;;5035642;28;20029;-74
2021/08/26 07:52:46;;;;;;;8.48;3.10;;;19.60;99.90;;;;;;5028728;28;20421;-75
2021/08/26 07:55:11;;;;;;;7.78;3.20;;;19.50;99.90;;;;;;5015533;28;20032;-75
2021/08/26 07:57:37;;;;;;;9.40;3.47;;;19.60;99.90;;;;;;5024441;28;20041;-74
2021/08/26 08:00:05;;;;;;;7.32;2.90;;;19.70;99.90;;;;;;5026248;28;20112;-75
2021/08/26 08:02:30;;;;;;;7.63;3.92;;;19.90;99.90;;;;;;5034501;28;20033;-75
2021/08/26 08:04:56;;;;;;;8.27;3.90;;;20.10;99.90;;;;;;5030504;28;20100;-74
2021/08/26 08:07:22;;;;;;;9.02;3.55;;;20.40;99.90;;;;;;5032470;28;20536;-74
2021/08/26 08:09:48;;;;;;;6.28;3.47;;;20.10;99.90;;;;;;5035857;28;20401;-75
2021/08/26 08:12:13;;;;;;;7.18;3.92;;;20.20;99.90;;;;;;5039029;28;20187;-74
2021/08/26 08:14:42;;;;;;;10.05;4.35;;;20.20;99.90;;;;;;5027944;28;20080;-74
2021/08/26 08:17:08;;;;;;;6.40;3.58;;;20.50;99.90;;;;;;5032886;28;20060;-74
2021/08/26 08:19:34;;;;;;;6.70;3.15;;;20.50;99.90;;;;;;5028446;28;20526;-75
2021/08/26 08:22:00;;;;;;;7.32;3.70;;;20.60;99.90;;;;;;5032625;28;20494;-75
2021/08/26 08:24:26;;;;;;;12.27;4.13;;;20.50;99.70;;;;;;5026259;28;20025;-75
2021/08/26 08:26:51;;;;;;;8.35;3.28;;;20.60;99.90;;;;;;5023557;28;20037;-75
2021/08/26 08:29:17;;;;;;;7.00;3.50;;;21.00;99.50;;;;;;5021060;28;20030;-75
2021/08/26 08:31:42;;;;;;;4.28;2.75;;;21.40;98.70;;;;;;5028145;28;20107;-75
2021/08/26 08:34:08;;;;;;;6.50;3.30;;;21.50;98.50;;;;;;5028465;28;20037;-75
2021/08/26 08:36:34;;;;;;;7.57;3.97;;;21.80;98.40;;;;;;5031699;28;20048;-75
2021/08/26 08:38:59;;;;;;;6.38;3.83;;;21.30;98.30;;;;;;5022292;28;20029;-75
2021/08/26 08:41:25;;;;;;;6.55;3.17;;;21.50;98.90;;;;;;5025165;28;20040;-74
2021/08/26 08:43:52;;;;;;;5.65;3.33;;;21.50;98.90;;;;;;5025770;28;20051;-75
2021/08/26 08:46:20;;;;;;;5.40;3.03;;;21.90;98.40;;;;;;5027151;28;20040;-75
2021/08/26 08:48:46;;;;;;;10.15;3.88;;;22.10;97.90;;;;;;5028420;28;20083;-75
2021/08/26 08:51:12;;;;;;;10.30;4.25;;;22.00;97.70;;;;;;5036111;28;20033;-75
2021/08/26 08:53:39;;;;;;;10.18;3.60;;;21.60;98.20;;;;;;5026682;28;20061;-75
2021/08/26 08:56:09;;;;;;;6.65;3.60;;;21.30;98.30;;;;;;5036630;28;20052;-75
2021/08/26 08:58:40;;;;;;;7.95;3.40;;;21.30;98.70;;;;;;5031697;28;20029;-75
2021/08/26 09:01:06;;;;;;;8.18;2.97;;;21.30;98.70;;;;;;5038863;28;20033;-75
2021/08/26 09:03:36;;;;;;;7.13;3.38;;;21.50;98.70;;;;;;5034943;28;20095;-75
2021/08/26 09:06:01;;;;;;;10.40;3.80;;;21.50;98.60;;;;;;5030906;28;20074;-75
2021/08/26 09:08:29;;;;;;;7.05;3.42;;;21.40;98.10;;;;;;5026136;28;20031;-75
2021/08/26 09:11:17;;;;;;;8.77;3.30;;;21.30;98.30;;;;;;5036071;28;20060;-75
2021/08/26 09:13:45;;;;;;;6.07;3.22;;;21.60;98.20;;;;;;5039948;28;20755;-75
2021/08/26 09:16:11;;;;;;;8.93;3.42;;;21.60;98.50;;;;;;5044519;28;20040;-75
2021/08/26 09:18:38;;;;;;;7.72;2.85;;;21.70;98.50;;;;;;5032681;28;20029;-75
2021/08/26 09:21:06;;;;;;;6.35;3.08;;;21.80;98.10;;;;;;5037206;28;20657;-75
2021/08/26 09:23:53;;;;;;;6.63;3.42;;;21.80;98.10;;;;;;5040710;28;20058;-75
2021/08/26 09:26:23;;;;;;;9.75;3.50;;;22.40;98.00;;;;;;5042272;28;20029;-75
2021/08/26 09:28:51;;;;;;;4.80;2.97;;;22.80;97.00;;;;;;5047379;28;20116;-75
2021/08/26 09:31:24;;;;;;;7.72;3.20;;;22.70;96.50;;;;;;5044109;28;20032;-75
2021/08/26 09:33:58;;;;;;;10.07;3.40;;;22.60;96.40;;;;;;5038140;28;20038;-75
2021/08/26 09:36:27;;;;;;;6.68;3.15;;;22.40;96.90;;;;;;5044931;28;20032;-75
2021/08/26 09:39:05;;;;;;;7.63;2.72;;;22.40;97.10;;;;;;5039848;28;20021;-75
2021/08/26 09:41:47;;;;;;;4.63;2.17;;;22.70;96.40;;;;;;5043922;28;20025;-75
2021/08/26 09:44:26;;;;;;;5.93;2.53;;;22.60;95.60;;;;;;5041970;28;20048;-75
2021/08/26 09:46:54;;;;;;;4.47;2.38;;;22.80;96.70;;;;;;5046170;28;20033;-75
2021/08/26 09:49:23;;;;;;;7.88;2.60;;;23.10;95.80;;;;;;5040202;28;20037;-75
2021/08/26 09:52:21;;;;;;;3.97;2.30;;;23.30;95.50;;;;;;5036546;28;20079;-75
2021/08/26 09:54:50;;;;;;;4.13;2.22;;;23.40;95.30;;;;;;5007275;28;20045;-75
2021/08/26 09:57:27;;;;;;;4.82;2.65;;;23.50;95.80;;;;;;5027233;28;20152;-75
2021/08/26 10:00:00;;;;;;;4.95;2.40;;;23.60;95.70;;;;;;5030123;28;20029;-75
2021/08/26 10:02:28;;;;;;;5.70;2.90;;;23.50;95.30;;;;;;5027006;28;20046;-75
2021/08/26 10:04:54;;;;;;;8.10;2.42;;;23.90;95.30;;;;;;5029538;28;20522;-75
2021/08/26 10:07:20;;;;;;;4.53;2.13;;;23.70;94.50;;;;;;5031009;28;20029;-75
2021/08/26 10:09:46;;;;;;;6.32;2.50;;;23.70;95.10;;;;;;5037806;28;20633;-75
2021/08/26 10:12:15;;;;;;;5.20;2.40;;;23.50;94.80;;;;;;5032159;28;20761;-75
2021/08/26 10:14:44;;;;;;;5.22;2.30;;;23.70;94.80;;;;;;5031184;28;20046;-76
2021/08/26 10:17:10;;;;;;;4.50;2.33;;;23.80;94.70;;;;;;5037453;28;20583;-75
2021/08/26 10:19:37;;;;;;;4.97;2.30;;;23.60;94.10;;;;;;5026329;28;20471;-75
2021/08/26 10:22:03;;;;;;;5.60;2.67;;;23.10;94.60;;;;;;5024892;28;20034;-75
2021/08/26 10:24:30;;;;;;;4.97;2.42;;;23.40;94.70;;;;;;5036689;28;20061;-75
2021/08/26 10:27:00;;;;;;;9.10;2.45;;;23.40;94.60;;;;;;5036139;28;20150;-75
2021/08/26 10:29:26;;;;;;;4.63;2.33;;;23.40;94.30;;;;;;5040029;28;20056;-75
2021/08/26 10:32:03;;;;;;;7.75;2.85;;;23.50;94.40;;;;;;5029435;28;20025;-75
2021/08/26 10:34:32;;;;;;;5.78;2.50;;;23.80;94.50;;;;;;5031431;28;20025;-75
2021/08/26 10:36:57;;;;;;;4.05;2.22;;;23.70;94.30;;;;;;5028800;28;20030;-75
2021/08/26 10:39:41;;;;;;;4.97;2.22;;;24.10;94.10;;;;;;5029153;28;20103;-75
2021/08/26 10:42:40;;;;;;;4.72;2.38;;;23.80;93.60;;;;;;5039609;28;20032;-75
2021/08/26 10:45:25;;;;;;;6.25;2.45;;;24.10;94.00;;;;;;5031622;28;20693;-75
2021/08/26 10:47:52;;;;;;;4.88;2.30;;;24.20;93.40;;;;;;5030666;28;20033;-75
2021/08/26 10:50:19;;;;;;;5.53;2.35;;;24.00;93.30;;;;;;5027843;28;20469;-75
2021/08/26 10:53:04;;;;;;;9.77;2.83;;;23.90;93.40;;;;;;5013303;28;20033;-75
2021/08/26 10:55:31;;;;;;;4.57;2.45;;;23.70;93.70;;;;;;5023221;28;20033;-75
2021/08/26 10:58:23;;;;;;;6.55;2.53;;;24.10;93.90;;;;;;5030475;28;20071;-75
2021/08/26 11:00:54;;;;;;;5.15;2.42;;;24.40;93.60;;;;;;5022153;28;20128;-75
2021/08/26 11:03:32;;;;;;;4.72;2.70;;;24.90;93.60;;;;;;5029751;28;20034;-75
2021/08/26 11:06:16;;;;;;;4.95;2.15;;;25.10;92.90;;;;;;5022654;28;20116;-75
2021/08/26 11:08:44;;;;;;;6.13;2.65;;;24.90;93.00;;;;;;5023119;28;20033;-75
2021/08/26 11:11:29;;;;;;;3.30;2.17;;;24.80;92.90;;;;;;5032887;28;20057;-75
2021/08/26 11:14:03;;;;;;;4.75;2.03;;;25.10;92.90;;;;;;5028586;28;20495;-75
2021/08/26 11:16:29;;;;;;;7.50;2.53;;;25.30;92.60;;;;;;5026598;28;20040;-75
2021/08/26 11:18:57;;;;;;;6.00;2.78;;;25.40;92.20;;;;;;5030340;28;20030;-75
2021/08/26 11:24:30;;;;;;;9.98;2.72;;;24.90;92.90;;;;;;5036090;28;20032;-75
2021/08/26 11:26:59;;;;;;;5.28;2.55;;;24.70;93.30;;;;;;5022743;28;20599;-75
2021/08/26 11:29:25;;;;;;;6.28;2.30;;;24.80;93.30;;;;;;5042496;28;20049;-75
2021/08/26 11:31:53;;;;;;;4.88;2.50;;;24.60;92.20;;;;;;5038147;28;20075;-76
2021/08/26 11:34:23;;;;;;;5.30;2.35;;;24.70;93.20;;;;;;5027939;28;20071;-77
2021/08/26 11:37:12;;;;;;;6.80;2.53;;;24.40;93.10;;;;;;5029003;28;20697;-79
2021/08/26 11:39:39;;;;;;;4.90;2.55;;;24.10;93.50;;;;;;5022372;28;20467;-78
2021/08/26 11:42:26;;;;;;;6.03;2.53;;;24.70;93.60;;;;;;5027538;28;20069;-79
2021/08/26 11:45:14;;;;;;;5.95;2.97;;;24.60;93.60;;;;;;5025944;28;20716;-78
2021/08/26 11:47:47;;;;;;;7.97;2.70;;;24.60;93.40;;;;;;5034871;28;20592;-79
2021/08/26 11:50:26;;;;;;;5.30;2.88;;;24.40;94.00;;;;;;5022040;28;20647;-79
2021/08/26 11:52:56;;;;;;;16.33;3.25;;;24.40;93.40;;;;;;5025906;28;20108;-79
2021/08/26 11:55:27;;;;;;;5.75;3.15;;;24.50;93.70;;;;;;5027253;28;20022;-79
2021/08/26 11:58:04;;;;;;;6.60;2.63;;;24.60;94.20;;;;;;5025067;28;20036;-79
2021/08/26 12:00:30;;;;;;;6.00;2.42;;;24.70;93.30;;;;;;5018391;28;20044;-79
2021/08/26 12:03:01;;;;;;;5.88;2.78;;;25.10;93.00;;;;;;5021010;28;20030;-79
2021/08/26 12:05:28;;;;;;;5.45;2.08;;;24.90;92.80;;;;;;5030359;28;20034;-79
2021/08/26 12:07:55;;;;;;;6.82;2.53;;;25.30;93.20;;;;;;5016929;28;20101;-80
2021/08/26 12:10:31;;;;;;;3.60;2.22;;;25.50;92.80;;;;;;5028908;28;20075;-79
2021/08/26 12:13:05;;;;;;;4.70;2.55;;;25.80;92.40;;;;;;5019860;28;20064;-79
2021/08/26 12:15:35;;;;;;;5.35;2.17;;;25.70;92.20;;;;;;5025477;28;20468;-79
2021/08/26 12:18:12;;;;;;;5.40;2.30;;;25.70;92.00;;;;;;5029532;28;20508;-79
2021/08/26 12:21:02;;;;;;;4.00;2.25;;;25.70;92.10;;;;;;5028597;28;20105;-80
2021/08/26 12:23:30;;;;;;;8.32;2.55;;;26.10;92.30;;;;;;5031070;28;20068;-79
2021/08/26 12:26:11;;;;;;;9.27;2.72;;;26.20;91.90;;;;;;5043539;28;20083;-79
2021/08/26 12:28:40;;;;;;;4.57;2.45;;;26.10;91.80;;;;;;5027441;28;20029;-79
2021/08/26 12:31:14;;;;;;;5.28;2.38;;;26.20;92.10;;;;;;5030726;28;20120;-79
2021/08/26 12:33:58;;;;;;;5.22;2.50;;;26.20;91.50;;;;;;5033367;28;20060;-80
2021/08/26 12:36:24;;;;;;;4.07;2.38;;;26.30;91.90;;;;;;5031986;28;20038;-80
2021/08/26 12:38:50;;;;;;;6.35;2.30;;;26.30;92.00;;;;;;5026020;28;20033;-80
2021/08/26 12:41:19;;;;;;;6.20;2.10;;;26.20;91.70;;;;;;5027489;28;20056;-80
2021/08/26 12:43:46;;;;;;;5.32;2.20;;;26.30;91.30;;;;;;5034822;28;20033;-78
2021/08/26 12:46:16;;;;;;;5.38;2.20;;;26.40;91.40;;;;;;5030564;28;20037;-80
2021/08/26 12:48:43;;;;;;;5.70;2.28;;;26.40;91.30;;;;;;5032917;28;20116;-80
2021/08/26 12:51:15;;;;;;;3.90;2.20;;;26.20;91.10;;;;;;5026247;28;20033;-79
2021/08/26 12:53:46;;;;;;;3.67;2.00;;;26.20;91.40;;;;;;5036845;28;20034;-79
2021/08/26 12:56:17;;;;;;;5.35;2.17;;;26.10;91.00;;;;;;5038331;28;20043;-79
2021/08/26 12:59:08;;;;;;;6.72;2.65;;;26.10;91.30;;;;;;5026515;28;20041;-80